sensor_id;sensor_type;location;lat;lon;timestamp;pressure;altitude;pressure_sealevel;temperature;humidity
18988;BME280;5494;51.796;10.952;2022-10-22T00:01:43;98472.38;;;14.46;100.00
18988;BME280;5494;51.796;10.952;2022-10-22T00:04:13;98461.09;;;14.45;100.00
18988;BME280;5494;51.796;10.952;2022-10-22T00:06:42;98461.34;;;14.53;100.00
18988;BME280;5494;51.796;10.952;2022-10-22T00:09:11;98484.66;;;14.56;100.00
18988;BME280;5494;51.796;10.952;2022-10-22T00:11:42;98485.16;;;14.62;100.00
18988;BME280;5494;51.796;10.952;2022-10-22T00:14:12;98477.19;;;14.63;100.00
18988;BME280;5494;51.796;10.952;2022-10-22T00:16:41;98468.63;;;14.61;100.00
18988;BME280;5494;51.796;10.952;2022-10-22T00:19:10;98473.38;;;14.67;100.00
18988;BME280;5494;51.796;10.952;2022-10-22T00:21:39;98470.78;;;14.67;100.00
18988;BME280;5494;51.796;10.952;2022-10-22T00:24:08;98468.50;;;14.63;100.00
18988;BME280;5494;51.796;10.952;2022-10-22T00:26:37;98474.13;;;14.69;100.00
18988;BME280;5494;51.796;10.952;2022-10-22T00:29:08;98471.03;;;14.75;100.00
18988;BME280;5494;51.796;10.952;2022-10-22T00:31:37;98469.81;;;14.68;100.00
18988;BME280;5494;51.796;10.952;2022-10-22T00:34:06;98464.00;;;14.65;100.00
18988;BME280;5494;51.796;10.952;2022-10-22T00:36:35;98460.31;;;14.67;100.00
18988;BME280;5494;51.796;10.952;2022-10-22T00:39:03;98465.31;;;14.70;100.00
18988;BME280;5494;51.796;10.952;2022-10-22T00:41:32;98467.69;;;14.73;100.00
18988;BME280;5494;51.796;10.952;2022-10-22T00:44:03;98470.66;;;14.69;100.00
18988;BME280;5494;51.796;10.952;2022-10-22T00:46:34;98464.84;;;14.76;100.00
18988;BME280;5494;51.796;10.952;2022-10-22T00:49:03;98461.75;;;14.71;100.00
18988;BME280;5494;51.796;10.952;2022-10-22T00:51:33;98457.69;;;14.67;100.00
18988;BME280;5494;51.796;10.952;2022-10-22T00:54:07;98465.78;;;14.64;100.00
18988;BME280;5494;51.796;10.952;2022-10-22T00:56:37;98477.19;;;14.63;100.00
18988;BME280;5494;51.796;10.952;2022-10-22T00:59:06;98481.81;;;14.59;100.00
18988;BME280;5494;51.796;10.952;2022-10-22T01:01:41;98478.88;;;14.64;100.00
18988;BME280;5494;51.796;10.952;2022-10-22T01:04:09;98487.41;;;14.66;100.00
18988;BME280;5494;51.796;10.952;2022-10-22T01:06:38;98475.31;;;14.65;100.00
18988;BME280;5494;51.796;10.952;2022-10-22T01:09:16;98461.66;;;14.73;100.00
18988;BME280;5494;51.796;10.952;2022-10-22T01:11:59;98469.81;;;14.68;100.00
18988;BME280;5494;51.796;10.952;2022-10-22T01:14:39;98463.66;;;14.69;100.00
18988;BME280;5494;51.796;10.952;2022-10-22T01:17:22;98459.47;;;14.67;100.00
18988;BME280;5494;51.796;10.952;2022-10-22T01:20:07;98471.59;;;14.68;100.00
18988;BME280;5494;51.796;10.952;2022-10-22T01:22:42;98466.63;;;14.65;100.00
18988;BME280;5494;51.796;10.952;2022-10-22T01:25:21;98472.69;;;14.65;100.00
18988;BME280;5494;51.796;10.952;2022-10-22T01:28:12;98466.72;;;14.63;100.00
18988;BME280;5494;51.796;10.952;2022-10-22T01:30:46;98472.31;;;14.58;100.00
18988;BME280;5494;51.796;10.952;2022-10-22T01:33:21;98470.50;;;14.59;100.00
18988;BME280;5494;51.796;10.952;2022-10-22T01:35:51;98476.56;;;14.59;100.00
18988;BME280;5494;51.796;10.952;2022-10-22T01:38:23;98473.25;;;14.57;100.00
18988;BME280;5494;51.796;10.952;2022-10-22T01:40:53;98474.31;;;14.55;100.00
18988;BME280;5494;51.796;10.952;2022-10-22T01:43:22;98473.59;;;14.53;100.00
18988;BME280;5494;51.796;10.952;2022-10-22T01:45:57;98467.66;;;14.51;100.00
18988;BME280;5494;51.796;10.952;2022-10-22T01:48:42;98471.94;;;14.52;100.00
18988;BME280;5494;51.796;10.952;2022-10-22T01:51:35;98469.09;;;14.55;100.00
18988;BME280;5494;51.796;10.952;2022-10-22T01:54:19;98468.03;;;14.57;100.00
18988;BME280;5494;51.796;10.952;2022-10-22T01:57:04;98467.19;;;14.57;100.00
18988;BME280;5494;51.796;10.952;2022-10-22T01:59:46;98466.13;;;14.59;100.00
18988;BME280;5494;51.796;10.952;2022-10-22T02:02:29;98457.69;;;14.56;100.00
18988;BME280;5494;51.796;10.952;2022-10-22T02:05:08;98457.69;;;14.56;100.00
18988;BME280;5494;51.796;10.952;2022-10-22T02:07:45;98456.72;;;14.57;100.00
18988;BME280;5494;51.796;10.952;2022-10-22T02:10:17;98444.81;;;14.53;100.00
18988;BME280;5494;51.796;10.952;2022-10-22T02:12:49;98438.75;;;14.52;100.00
18988;BME280;5494;51.796;10.952;2022-10-22T02:15:22;98434.34;;;14.53;100.00
18988;BME280;5494;51.796;10.952;2022-10-22T02:17:57;98434.34;;;14.53;100.00
18988;BME280;5494;51.796;10.952;2022-10-22T02:20:31;98443.03;;;14.53;100.00
18988;BME280;5494;51.796;10.952;2022-10-22T02:23:00;98438.75;;;14.52;100.00
18988;BME280;5494;51.796;10.952;2022-10-22T02:25:34;98450.03;;;14.53;100.00
18988;BME280;5494;51.796;10.952;2022-10-22T02:28:12;98441.72;;;14.59;100.00
18988;BME280;5494;51.796;10.952;2022-10-22T02:30:51;98448.16;;;14.55;100.00
18988;BME280;5494;51.796;10.952;2022-10-22T02:33:26;98443.19;;;14.52;100.00
18988;BME280;5494;51.796;10.952;2022-10-22T02:35:58;98453.63;;;14.52;100.00
18988;BME280;5494;51.796;10.952;2022-10-22T02:38:30;98450.66;;;14.56;100.00
18988;BME280;5494;51.796;10.952;2022-10-22T02:41:01;98454.81;;;14.59;100.00
18988;BME280;5494;51.796;10.952;2022-10-22T02:43:30;98451.03;;;14.63;100.00
18988;BME280;5494;51.796;10.952;2022-10-22T02:46:06;98451.63;;;14.67;100.00
18988;BME280;5494;51.796;10.952;2022-10-22T02:48:36;98459.81;;;14.62;100.00
18988;BME280;5494;51.796;10.952;2022-10-22T02:51:04;98454.59;;;14.62;100.00
18988;BME280;5494;51.796;10.952;2022-10-22T02:53:34;98462.09;;;14.67;100.00
18988;BME280;5494;51.796;10.952;2022-10-22T02:56:04;98457.56;;;14.57;100.00
18988;BME280;5494;51.796;10.952;2022-10-22T02:58:32;98472.44;;;14.57;100.00
18988;BME280;5494;51.796;10.952;2022-10-22T03:01:01;98468.97;;;14.56;100.00
18988;BME280;5494;51.796;10.952;2022-10-22T03:03:29;98473.47;;;14.54;100.00
18988;BME280;5494;51.796;10.952;2022-10-22T03:05:59;98478.13;;;14.51;100.00
18988;BME280;5494;51.796;10.952;2022-10-22T03:08:28;98480.50;;;14.54;100.00
18988;BME280;5494;51.796;10.952;2022-10-22T03:10:57;98485.03;;;14.52;100.00
18988;BME280;5494;51.796;10.952;2022-10-22T03:13:25;98483.09;;;14.54;100.00
18988;BME280;5494;51.796;10.952;2022-10-22T03:15:53;98484.44;;;14.59;100.00
18988;BME280;5494;51.796;10.952;2022-10-22T03:18:22;98483.25;;;14.64;100.00
18988;BME280;5494;51.796;10.952;2022-10-22T03:21:07;98484.09;;;14.64;100.00
18988;BME280;5494;51.796;10.952;2022-10-22T03:23:38;98489.78;;;14.58;100.00
18988;BME280;5494;51.796;10.952;2022-10-22T03:26:09;98481.47;;;14.64;100.00
18988;BME280;5494;51.796;10.952;2022-10-22T03:28:40;98490.28;;;14.63;100.00
18988;BME280;5494;51.796;10.952;2022-10-22T03:31:09;98483.25;;;14.64;100.00
18988;BME280;5494;51.796;10.952;2022-10-22T03:33:38;98475.31;;;14.65;100.00
18988;BME280;5494;51.796;10.952;2022-10-22T03:36:09;98483.00;;;14.67;100.00
18988;BME280;5494;51.796;10.952;2022-10-22T03:38:38;98487.09;;;14.71;100.00
18988;BME280;5494;51.796;10.952;2022-10-22T03:41:09;98486.13;;;14.72;100.00
18988;BME280;5494;51.796;10.952;2022-10-22T03:43:38;98493.47;;;14.67;100.00
18988;BME280;5494;51.796;10.952;2022-10-22T03:46:07;98499.53;;;14.67;100.00
18988;BME280;5494;51.796;10.952;2022-10-22T03:48:36;98504.09;;;14.65;100.00
18988;BME280;5494;51.796;10.952;2022-10-22T03:51:05;98512.63;;;14.67;100.00
18988;BME280;5494;51.796;10.952;2022-10-22T03:53:35;98507.06;;;14.72;100.00
18988;BME280;5494;51.796;10.952;2022-10-22T03:56:07;98514.94;;;14.72;100.00
18988;BME280;5494;51.796;10.952;2022-10-22T03:58:39;98506.25;;;14.71;100.00
18988;BME280;5494;51.796;10.952;2022-10-22T04:01:11;98507.78;;;14.74;100.00
18988;BME280;5494;51.796;10.952;2022-10-22T04:03:40;98501.69;;;14.73;100.00
18988;BME280;5494;51.796;10.952;2022-10-22T04:06:11;98502.44;;;14.75;100.00
18988;BME280;5494;51.796;10.952;2022-10-22T04:08:44;98498.72;;;14.67;100.00
18988;BME280;5494;51.796;10.952;2022-10-22T04:11:14;98497.66;;;14.69;100.00
18988;BME280;5494;51.796;10.952;2022-10-22T04:13:43;98519.22;;;14.73;100.00
18988;BME280;5494;51.796;10.952;2022-10-22T04:16:16;98522.50;;;14.64;100.00
18988;BME280;5494;51.796;10.952;2022-10-22T04:18:47;98539.50;;;14.58;100.00
18988;BME280;5494;51.796;10.952;2022-10-22T04:21:19;98528.06;;;14.59;100.00
18988;BME280;5494;51.796;10.952;2022-10-22T04:23:50;98526.63;;;14.55;100.00
18988;BME280;5494;51.796;10.952;2022-10-22T04:26:20;98535.31;;;14.55;100.00
18988;BME280;5494;51.796;10.952;2022-10-22T04:28:50;98534.47;;;14.55;100.00
18988;BME280;5494;51.796;10.952;2022-10-22T04:31:21;98539.81;;;14.53;100.00
18988;BME280;5494;51.796;10.952;2022-10-22T04:33:52;98538.28;;;14.51;100.00
18988;BME280;5494;51.796;10.952;2022-10-22T04:36:22;98543.84;;;14.46;100.00
18988;BME280;5494;51.796;10.952;2022-10-22T04:38:55;98543.00;;;14.46;100.00
18988;BME280;5494;51.796;10.952;2022-10-22T04:41:27;98552.03;;;14.42;100.00
18988;BME280;5494;51.796;10.952;2022-10-22T04:43:57;98540.28;;;14.47;100.00
18988;BME280;5494;51.796;10.952;2022-10-22T04:46:30;98538.59;;;14.46;100.00
18988;BME280;5494;51.796;10.952;2022-10-22T04:48:59;98550.13;;;14.44;100.00
18988;BME280;5494;51.796;10.952;2022-10-22T04:51:30;98548.38;;;14.44;100.00
18988;BME280;5494;51.796;10.952;2022-10-22T04:54:01;98542.06;;;14.47;100.00
18988;BME280;5494;51.796;10.952;2022-10-22T04:56:31;98552.03;;;14.42;100.00
18988;BME280;5494;51.796;10.952;2022-10-22T04:59:02;98556.91;;;14.46;100.00
18988;BME280;5494;51.796;10.952;2022-10-22T05:01:33;98548.75;;;14.51;100.00
18988;BME280;5494;51.796;10.952;2022-10-22T05:04:13;98544.56;;;14.48;100.00
18988;BME280;5494;51.796;10.952;2022-10-22T05:06:43;98534.81;;;14.50;100.00
18988;BME280;5494;51.796;10.952;2022-10-22T05:09:15;98533.59;;;14.43;100.00
18988;BME280;5494;51.796;10.952;2022-10-22T05:11:47;98527.84;;;14.38;100.00
18988;BME280;5494;51.796;10.952;2022-10-22T05:14:19;98536.75;;;14.36;100.00
18988;BME280;5494;51.796;10.952;2022-10-22T05:16:48;98529.34;;;14.30;100.00
18988;BME280;5494;51.796;10.952;2022-10-22T05:19:20;98530.06;;;14.32;100.00
18988;BME280;5494;51.796;10.952;2022-10-22T05:21:50;98529.13;;;14.33;100.00
18988;BME280;5494;51.796;10.952;2022-10-22T05:24:20;98540.53;;;14.32;100.00
18988;BME280;5494;51.796;10.952;2022-10-22T05:26:50;98546.47;;;14.34;100.00
18988;BME280;5494;51.796;10.952;2022-10-22T05:29:19;98549.81;;;14.36;100.00
18988;BME280;5494;51.796;10.952;2022-10-22T05:31:48;98545.13;;;14.41;100.00
18988;BME280;5494;51.796;10.952;2022-10-22T05:34:17;98539.44;;;14.47;100.00
18988;BME280;5494;51.796;10.952;2022-10-22T05:36:46;98541.94;;;14.48;100.00
18988;BME280;5494;51.796;10.952;2022-10-22T05:39:15;98546.22;;;14.49;100.00
18988;BME280;5494;51.796;10.952;2022-10-22T05:41:45;98544.47;;;14.50;100.00
18988;BME280;5494;51.796;10.952;2022-10-22T05:44:13;98548.59;;;14.52;100.00
18988;BME280;5494;51.796;10.952;2022-10-22T05:46:41;98541.59;;;14.53;100.00
18988;BME280;5494;51.796;10.952;2022-10-22T05:49:13;98552.91;;;14.53;100.00
18988;BME280;5494;51.796;10.952;2022-10-22T05:51:42;98559.69;;;14.56;100.00
18988;BME280;5494;51.796;10.952;2022-10-22T05:54:17;98563.63;;;14.62;100.00
18988;BME280;5494;51.796;10.952;2022-10-22T05:56:48;98562.59;;;14.64;100.00
18988;BME280;5494;51.796;10.952;2022-10-22T05:59:17;98562.78;;;14.61;100.00
18988;BME280;5494;51.796;10.952;2022-10-22T06:01:46;98565.41;;;14.61;100.00
18988;BME280;5494;51.796;10.952;2022-10-22T06:04:15;98570.66;;;14.61;100.00
18988;BME280;5494;51.796;10.952;2022-10-22T06:06:46;98576.97;;;14.58;100.00
18988;BME280;5494;51.796;10.952;2022-10-22T06:09:19;98575.03;;;14.61;100.00
18988;BME280;5494;51.796;10.952;2022-10-22T06:11:52;98585.06;;;14.67;100.00
18988;BME280;5494;51.796;10.952;2022-10-22T06:14:21;98581.28;;;14.71;100.00
18988;BME280;5494;51.796;10.952;2022-10-22T06:16:50;98578.19;;;14.66;100.00
18988;BME280;5494;51.796;10.952;2022-10-22T06:19:21;98581.72;;;14.65;100.00
18988;BME280;5494;51.796;10.952;2022-10-22T06:21:52;98582.78;;;14.62;100.00
18988;BME280;5494;51.796;10.952;2022-10-22T06:24:21;98589.78;;;14.62;100.00
18988;BME280;5494;51.796;10.952;2022-10-22T06:26:51;98597.75;;;14.60;100.00
18988;BME280;5494;51.796;10.952;2022-10-22T06:29:20;98596.81;;;14.61;100.00
18988;BME280;5494;51.796;10.952;2022-10-22T06:31:48;98597.19;;;14.68;100.00
18988;BME280;5494;51.796;10.952;2022-10-22T06:34:17;98597.53;;;14.63;100.00
18988;BME280;5494;51.796;10.952;2022-10-22T06:36:46;98601.81;;;14.64;100.00
18988;BME280;5494;51.796;10.952;2022-10-22T06:39:16;98604.81;;;14.71;100.00
18988;BME280;5494;51.796;10.952;2022-10-22T06:41:45;98611.59;;;14.73;100.00
18988;BME280;5494;51.796;10.952;2022-10-22T06:44:19;98614.22;;;14.73;100.00
18988;BME280;5494;51.796;10.952;2022-10-22T06:46:49;98608.03;;;14.74;100.00
18988;BME280;5494;51.796;10.952;2022-10-22T06:49:20;98616.72;;;14.75;100.00
18988;BME280;5494;51.796;10.952;2022-10-22T06:51:49;98620.66;;;14.80;100.00
18988;BME280;5494;51.796;10.952;2022-10-22T06:54:18;98630.53;;;14.77;100.00
18988;BME280;5494;51.796;10.952;2022-10-22T06:56:47;98637.09;;;14.82;100.00
18988;BME280;5494;51.796;10.952;2022-10-22T06:59:18;98633.19;;;14.88;100.00
18988;BME280;5494;51.796;10.952;2022-10-22T07:01:47;98640.47;;;14.95;100.00
18988;BME280;5494;51.796;10.952;2022-10-22T07:04:15;98642.16;;;14.96;100.00
18988;BME280;5494;51.796;10.952;2022-10-22T07:06:44;98637.53;;;15.00;100.00
18988;BME280;5494;51.796;10.952;2022-10-22T07:09:12;98645.25;;;15.02;100.00
18988;BME280;5494;51.796;10.952;2022-10-22T07:11:44;98651.25;;;15.15;100.00
18988;BME280;5494;51.796;10.952;2022-10-22T07:14:13;98652.09;;;15.15;100.00
18988;BME280;5494;51.796;10.952;2022-10-22T07:16:43;98653.19;;;15.24;100.00
18988;BME280;5494;51.796;10.952;2022-10-22T07:19:12;98661.88;;;15.24;100.00
18988;BME280;5494;51.796;10.952;2022-10-22T07:21:41;98662.75;;;15.36;100.00
18988;BME280;5494;51.796;10.952;2022-10-22T07:24:09;98664.03;;;15.30;100.00
18988;BME280;5494;51.796;10.952;2022-10-22T07:26:38;98667.97;;;15.36;100.00
18988;BME280;5494;51.796;10.952;2022-10-22T07:29:07;98675.03;;;15.47;100.00
18988;BME280;5494;51.796;10.952;2022-10-22T07:31:36;98679.81;;;15.42;100.00
18988;BME280;5494;51.796;10.952;2022-10-22T07:34:07;98679.19;;;15.38;100.00
18988;BME280;5494;51.796;10.952;2022-10-22T07:36:36;98681.59;;;15.41;100.00
18988;BME280;5494;51.796;10.952;2022-10-22T07:39:05;98681.81;;;15.38;100.00
18988;BME280;5494;51.796;10.952;2022-10-22T07:41:33;98687.19;;;15.48;100.00
18988;BME280;5494;51.796;10.952;2022-10-22T07:44:02;98695.28;;;15.45;100.00
18988;BME280;5494;51.796;10.952;2022-10-22T07:46:30;98691.59;;;15.47;100.00
18988;BME280;5494;51.796;10.952;2022-10-22T07:49:01;98694.22;;;15.47;100.00
18988;BME280;5494;51.796;10.952;2022-10-22T07:51:31;98698.63;;;15.47;100.00
18988;BME280;5494;51.796;10.952;2022-10-22T07:53:59;98700.16;;;15.49;100.00
18988;BME280;5494;51.796;10.952;2022-10-22T07:56:28;98701.66;;;15.53;100.00
18988;BME280;5494;51.796;10.952;2022-10-22T07:58:57;98699.03;;;15.64;99.56
18988;BME280;5494;51.796;10.952;2022-10-22T08:01:25;98701.66;;;15.64;99.08
18988;BME280;5494;51.796;10.952;2022-10-22T08:03:54;98706.91;;;15.64;99.25
18988;BME280;5494;51.796;10.952;2022-10-22T08:06:22;98706.56;;;15.69;99.41
18988;BME280;5494;51.796;10.952;2022-10-22T08:08:52;98711.44;;;15.73;98.68
18988;BME280;5494;51.796;10.952;2022-10-22T08:11:21;98707.53;;;15.68;99.05
18988;BME280;5494;51.796;10.952;2022-10-22T08:13:49;98709.53;;;15.64;99.47
18988;BME280;5494;51.796;10.952;2022-10-22T08:16:18;98720.00;;;15.64;99.41
18988;BME280;5494;51.796;10.952;2022-10-22T08:18:47;98717.41;;;15.75;98.73
18988;BME280;5494;51.796;10.952;2022-10-22T08:21:16;98714.34;;;15.82;98.48
18988;BME280;5494;51.796;10.952;2022-10-22T08:23:44;98717.09;;;16.13;97.74
18988;BME280;5494;51.796;10.952;2022-10-22T08:26:14;98715.28;;;16.59;95.01
18988;BME280;5494;51.796;10.952;2022-10-22T08:28:43;98714.66;;;17.20;92.54
18988;BME280;5494;51.796;10.952;2022-10-22T08:31:12;98712.66;;;17.86;88.27
18988;BME280;5494;51.796;10.952;2022-10-22T08:33:40;98710.66;;;18.39;85.92
18988;BME280;5494;51.796;10.952;2022-10-22T08:36:09;98711.97;;;18.95;82.30
18988;BME280;5494;51.796;10.952;2022-10-22T08:38:38;98711.41;;;19.01;81.64
18988;BME280;5494;51.796;10.952;2022-10-22T08:41:11;98716.28;;;19.34;80.15
18988;BME280;5494;51.796;10.952;2022-10-22T08:44:13;98722.88;;;19.86;77.68
18988;BME280;5494;51.796;10.952;2022-10-22T08:47:16;98716.75;;;20.42;74.99
18988;BME280;5494;51.796;10.952;2022-10-22T08:49:52;98703.66;;;20.50;73.08
18988;BME280;5494;51.796;10.952;2022-10-22T08:52:23;98703.56;;;19.86;75.16
18988;BME280;5494;51.796;10.952;2022-10-22T08:54:54;98721.38;;;19.45;77.11
18988;BME280;5494;51.796;10.952;2022-10-22T08:57:42;98716.13;;;19.64;77.02
18988;BME280;5494;51.796;10.952;2022-10-22T09:00:23;98723.88;;;19.76;76.67
18988;BME280;5494;51.796;10.952;2022-10-22T09:03:11;98717.41;;;20.07;75.06
18988;BME280;5494;51.796;10.952;2022-10-22T09:05:55;98706.63;;;20.28;73.89
18988;BME280;5494;51.796;10.952;2022-10-22T09:08:26;98715.63;;;20.44;73.15
18988;BME280;5494;51.796;10.952;2022-10-22T09:11:01;98708.38;;;20.74;71.82
18988;BME280;5494;51.796;10.952;2022-10-22T09:13:31;98719.38;;;20.69;71.57
18988;BME280;5494;51.796;10.952;2022-10-22T09:16:14;98711.34;;;20.89;71.05
18988;BME280;5494;51.796;10.952;2022-10-22T09:18:58;98718.88;;;20.83;69.80
18988;BME280;5494;51.796;10.952;2022-10-22T09:21:37;98711.56;;;20.95;70.35
18988;BME280;5494;51.796;10.952;2022-10-22T09:24:13;98707.66;;;20.99;69.66
18988;BME280;5494;51.796;10.952;2022-10-22T09:26:44;98708.13;;;20.95;70.01
18988;BME280;5494;51.796;10.952;2022-10-22T09:29:20;98714.38;;;20.94;70.02
18988;BME280;5494;51.796;10.952;2022-10-22T09:31:52;98706.91;;;20.62;70.78
18988;BME280;5494;51.796;10.952;2022-10-22T09:34:21;98711.75;;;20.94;69.50
18988;BME280;5494;51.796;10.952;2022-10-22T09:36:57;98706.16;;;21.14;68.15
18988;BME280;5494;51.796;10.952;2022-10-22T09:39:28;98716.34;;;21.09;68.31
18988;BME280;5494;51.796;10.952;2022-10-22T09:41:59;98715.72;;;20.98;68.64
18988;BME280;5494;51.796;10.952;2022-10-22T09:44:28;98713.41;;;21.12;68.27
18988;BME280;5494;51.796;10.952;2022-10-22T09:47:03;98720.69;;;20.83;68.89
18988;BME280;5494;51.796;10.952;2022-10-22T09:49:35;98720.88;;;20.99;68.80
18988;BME280;5494;51.796;10.952;2022-10-22T09:52:25;98722.91;;;21.05;68.72
18988;BME280;5494;51.796;10.952;2022-10-22T09:54:55;98719.91;;;21.00;68.87
18988;BME280;5494;51.796;10.952;2022-10-22T09:57:24;98726.44;;;20.96;68.05
18988;BME280;5494;51.796;10.952;2022-10-22T09:59:54;98726.75;;;20.93;68.91
18988;BME280;5494;51.796;10.952;2022-10-22T10:02:27;98717.75;;;20.86;68.16
18988;BME280;5494;51.796;10.952;2022-10-22T10:05:06;98718.19;;;20.81;68.44
18988;BME280;5494;51.796;10.952;2022-10-22T10:07:35;98709.59;;;20.97;68.16
18988;BME280;5494;51.796;10.952;2022-10-22T10:10:20;98719.91;;;21.00;67.87
18988;BME280;5494;51.796;10.952;2022-10-22T10:13:02;98736.03;;;20.52;69.38
18988;BME280;5494;51.796;10.952;2022-10-22T10:15:42;98732.47;;;19.97;71.32
18988;BME280;5494;51.796;10.952;2022-10-22T10:18:31;98733.44;;;19.96;72.30
18988;BME280;5494;51.796;10.952;2022-10-22T10:21:08;98733.09;;;20.18;71.35
18988;BME280;5494;51.796;10.952;2022-10-22T10:23:56;98740.22;;;19.98;71.37
18988;BME280;5494;51.796;10.952;2022-10-22T10:26:36;98739.16;;;19.72;72.15
18988;BME280;5494;51.796;10.952;2022-10-22T10:29:20;98737.94;;;19.47;72.74
18988;BME280;5494;51.796;10.952;2022-10-22T10:32:11;98736.69;;;19.61;72.85
18988;BME280;5494;51.796;10.952;2022-10-22T10:35:03;98744.94;;;20.04;71.63
18988;BME280;5494;51.796;10.952;2022-10-22T10:37:42;98745.88;;;20.13;69.80
18988;BME280;5494;51.796;10.952;2022-10-22T10:40:27;98749.84;;;20.36;69.66
18988;BME280;5494;51.796;10.952;2022-10-22T10:43:06;98749.63;;;20.57;67.35
18988;BME280;5494;51.796;10.952;2022-10-22T10:45:47;98728.22;;;20.60;66.88
18988;BME280;5494;51.796;10.952;2022-10-22T10:48:38;98741.72;;;20.75;66.98
18988;BME280;5494;51.796;10.952;2022-10-22T10:51:30;98743.13;;;20.52;67.48
18988;BME280;5494;51.796;10.952;2022-10-22T10:54:26;98748.56;;;20.40;67.82
18988;BME280;5494;51.796;10.952;2022-10-22T10:57:07;98754.84;;;20.39;68.39
18988;BME280;5494;51.796;10.952;2022-10-22T10:59:52;98758.28;;;20.50;68.40
18988;BME280;5494;51.796;10.952;2022-10-22T11:03:17;98762.19;;;20.46;69.42
18988;BME280;5494;51.796;10.952;2022-10-22T11:05:57;98764.97;;;20.44;68.75
18988;BME280;5494;51.796;10.952;2022-10-22T11:08:31;98770.69;;;20.39;69.13
18988;BME280;5494;51.796;10.952;2022-10-22T11:11:06;98768.50;;;20.25;69.32
18988;BME280;5494;51.796;10.952;2022-10-22T11:13:41;98769.34;;;20.16;69.95
18988;BME280;5494;51.796;10.952;2022-10-22T11:16:19;98773.34;;;20.20;69.01
18988;BME280;5494;51.796;10.952;2022-10-22T11:18:57;98770.00;;;20.28;69.36
18988;BME280;5494;51.796;10.952;2022-10-22T11:21:36;98776.25;;;20.27;68.93
18988;BME280;5494;51.796;10.952;2022-10-22T11:24:19;98781.53;;;20.46;67.87
18988;BME280;5494;51.796;10.952;2022-10-22T11:26:55;98779.59;;;20.29;67.68
18988;BME280;5494;51.796;10.952;2022-10-22T11:29:30;98774.88;;;20.32;67.52
18988;BME280;5494;51.796;10.952;2022-10-22T11:32:02;98782.53;;;20.26;67.78
18988;BME280;5494;51.796;10.952;2022-10-22T11:34:37;98783.91;;;20.20;68.21
18988;BME280;5494;51.796;10.952;2022-10-22T11:37:10;98783.97;;;20.11;68.33
18988;BME280;5494;51.796;10.952;2022-10-22T11:39:47;98774.22;;;20.11;68.30
18988;BME280;5494;51.796;10.952;2022-10-22T11:42:20;98772.31;;;20.03;69.08
18988;BME280;5494;51.796;10.952;2022-10-22T11:44:59;98769.22;;;19.98;69.14
18988;BME280;5494;51.796;10.952;2022-10-22T11:47:32;98761.50;;;19.87;69.99
18988;BME280;5494;51.796;10.952;2022-10-22T11:50:19;98761.50;;;19.87;68.86
18988;BME280;5494;51.796;10.952;2022-10-22T11:52:59;98760.97;;;19.74;69.89
18988;BME280;5494;51.796;10.952;2022-10-22T11:55:43;98759.56;;;19.80;70.40
18988;BME280;5494;51.796;10.952;2022-10-22T11:58:32;98756.78;;;19.72;70.59
18988;BME280;5494;51.796;10.952;2022-10-22T12:01:22;98761.09;;;19.73;70.74
18988;BME280;5494;51.796;10.952;2022-10-22T12:04:19;98755.25;;;19.79;71.12
18988;BME280;5494;51.796;10.952;2022-10-22T12:06:59;98756.22;;;19.78;71.07
18988;BME280;5494;51.796;10.952;2022-10-22T12:09:31;98753.06;;;19.55;72.27
18988;BME280;5494;51.796;10.952;2022-10-22T12:12:12;98755.84;;;19.53;72.01
18988;BME280;5494;51.796;10.952;2022-10-22T12:14:53;98753.03;;;19.45;71.68
18988;BME280;5494;51.796;10.952;2022-10-22T12:17:24;98750.38;;;19.45;72.09
18988;BME280;5494;51.796;10.952;2022-10-22T12:20:00;98757.19;;;19.38;71.78
18988;BME280;5494;51.796;10.952;2022-10-22T12:22:33;98760.78;;;19.18;72.18
18988;BME280;5494;51.796;10.952;2022-10-22T12:25:16;98758.44;;;19.15;72.85
18988;BME280;5494;51.796;10.952;2022-10-22T12:27:52;98772.28;;;19.17;72.46
18988;BME280;5494;51.796;10.952;2022-10-22T12:30:24;98760.38;;;19.13;71.43
18988;BME280;5494;51.796;10.952;2022-10-22T12:32:56;98763.28;;;19.00;72.12
18988;BME280;5494;51.796;10.952;2022-10-22T12:35:30;98761.31;;;19.02;72.20
18988;BME280;5494;51.796;10.952;2022-10-22T12:38:03;98765.78;;;19.11;72.22
18988;BME280;5494;51.796;10.952;2022-10-22T12:40:35;98766.88;;;19.09;72.73
18988;BME280;5494;51.796;10.952;2022-10-22T12:43:11;98767.84;;;19.17;71.81
18988;BME280;5494;51.796;10.952;2022-10-22T12:45:43;98758.44;;;19.15;71.90
18988;BME280;5494;51.796;10.952;2022-10-22T12:48:17;98760.34;;;19.03;72.59
18988;BME280;5494;51.796;10.952;2022-10-22T12:50:51;98761.84;;;18.86;73.59
18988;BME280;5494;51.796;10.952;2022-10-22T12:53:26;98754.22;;;18.83;74.45
18988;BME280;5494;51.796;10.952;2022-10-22T12:56:02;98758.63;;;18.83;73.41
18988;BME280;5494;51.796;10.952;2022-10-22T12:58:39;98745.31;;;18.75;73.77
18988;BME280;5494;51.796;10.952;2022-10-22T13:01:10;98743.63;;;18.64;72.97
18988;BME280;5494;51.796;10.952;2022-10-22T13:03:42;98758.84;;;18.61;73.16
18988;BME280;5494;51.796;10.952;2022-10-22T13:06:19;98755.41;;;18.70;73.36
18988;BME280;5494;51.796;10.952;2022-10-22T13:09:06;98755.72;;;18.67;73.52
18988;BME280;5494;51.796;10.952;2022-10-22T13:11:47;98752.28;;;18.85;72.89
18988;BME280;5494;51.796;10.952;2022-10-22T13:14:30;98747.00;;;18.85;72.95
18988;BME280;5494;51.796;10.952;2022-10-22T13:17:09;98743.13;;;18.80;73.17
18988;BME280;5494;51.796;10.952;2022-10-22T13:19:48;98741.16;;;18.82;73.18
18988;BME280;5494;51.796;10.952;2022-10-22T13:22:27;98742.72;;;18.84;72.90
18988;BME280;5494;51.796;10.952;2022-10-22T13:25:19;98751.56;;;18.83;72.51
18988;BME280;5494;51.796;10.952;2022-10-22T13:27:52;98739.75;;;18.68;73.20
18988;BME280;5494;51.796;10.952;2022-10-22T13:30:26;98760.81;;;18.68;74.10